sensor_id;sensor_type;location;lat;lon;timestamp;P1;durP1;ratioP1;P2;durP2;ratioP2
15198;SDS011;7700;48.654;9.070;2023-09-19T00:00:18;2.35;;;1.00;;
15198;SDS011;7700;48.654;9.070;2023-09-19T00:02:46;1.10;;;0.90;;
15198;SDS011;7700;48.654;9.070;2023-09-19T00:05:12;1.27;;;0.88;;
15198;SDS011;7700;48.654;9.070;2023-09-19T00:07:39;1.42;;;0.88;;
15198;SDS011;7700;48.654;9.070;2023-09-19T00:10:05;1.80;;;1.02;;
15198;SDS011;7700;48.654;9.070;2023-09-19T00:12:33;1.05;;;0.85;;
15198;SDS011;7700;48.654;9.070;2023-09-19T00:14:59;1.05;;;1.00;;
15198;SDS011;7700;48.654;9.070;2023-09-19T00:17:26;1.92;;;0.80;;
15198;SDS011;7700;48.654;9.070;2023-09-19T00:19:51;1.63;;;0.90;;
15198;SDS011;7700;48.654;9.070;2023-09-19T00:22:17;2.58;;;0.90;;
15198;SDS011;7700;48.654;9.070;2023-09-19T00:24:44;2.70;;;1.00;;
15198;SDS011;7700;48.654;9.070;2023-09-19T00:27:10;1.05;;;0.93;;
15198;SDS011;7700;48.654;9.070;2023-09-19T00:29:36;0.90;;;0.73;;
15198;SDS011;7700;48.654;9.070;2023-09-19T00:32:02;1.33;;;1.00;;
15198;SDS011;7700;48.654;9.070;2023-09-19T00:34:29;2.15;;;0.88;;
15198;SDS011;7700;48.654;9.070;2023-09-19T00:36:59;0.93;;;0.80;;
15198;SDS011;7700;48.654;9.070;2023-09-19T00:39:25;2.53;;;0.93;;
15198;SDS011;7700;48.654;9.070;2023-09-19T00:41:51;2.63;;;1.02;;
15198;SDS011;7700;48.654;9.070;2023-09-19T00:44:17;2.83;;;0.98;;
15198;SDS011;7700;48.654;9.070;2023-09-19T00:46:45;0.82;;;0.82;;
15198;SDS011;7700;48.654;9.070;2023-09-19T00:49:14;1.63;;;0.70;;
15198;SDS011;7700;48.654;9.070;2023-09-19T00:51:40;1.42;;;0.73;;
15198;SDS011;7700;48.654;9.070;2023-09-19T00:54:12;2.13;;;1.00;;
15198;SDS011;7700;48.654;9.070;2023-09-19T00:56:43;0.63;;;0.57;;
15198;SDS011;7700;48.654;9.070;2023-09-19T00:59:09;2.35;;;0.80;;
15198;SDS011;7700;48.654;9.070;2023-09-19T01:01:36;0.95;;;0.85;;
15198;SDS011;7700;48.654;9.070;2023-09-19T01:04:05;0.70;;;0.70;;
15198;SDS011;7700;48.654;9.070;2023-09-19T01:06:31;32.10;;;17.65;;
15198;SDS011;7700;48.654;9.070;2023-09-19T01:08:57;2.05;;;1.00;;
15198;SDS011;7700;48.654;9.070;2023-09-19T01:11:33;0.90;;;0.80;;
15198;SDS011;7700;48.654;9.070;2023-09-19T01:14:10;2.28;;;0.70;;
15198;SDS011;7700;48.654;9.070;2023-09-19T01:27:27;1.77;;;0.80;;
15198;SDS011;7700;48.654;9.070;2023-09-19T01:30:06;1.95;;;0.88;;
15198;SDS011;7700;48.654;9.070;2023-09-19T01:32:33;1.83;;;0.77;;
15198;SDS011;7700;48.654;9.070;2023-09-19T01:34:59;1.70;;;1.10;;
15198;SDS011;7700;48.654;9.070;2023-09-19T01:37:29;3.42;;;0.98;;
15198;SDS011;7700;48.654;9.070;2023-09-19T01:39:57;1.20;;;0.90;;
15198;SDS011;7700;48.654;9.070;2023-09-19T01:42:56;1.40;;;0.75;;
15198;SDS011;7700;48.654;9.070;2023-09-19T01:47:54;1.38;;;0.90;;
15198;SDS011;7700;48.654;9.070;2023-09-19T01:50:29;1.40;;;0.60;;
15198;SDS011;7700;48.654;9.070;2023-09-19T01:53:04;2.38;;;0.88;;
15198;SDS011;7700;48.654;9.070;2023-09-19T01:55:34;0.80;;;0.80;;
15198;SDS011;7700;48.654;9.070;2023-09-19T01:58:08;1.65;;;0.73;;
15198;SDS011;7700;48.654;9.070;2023-09-19T02:00:40;1.33;;;0.80;;
15198;SDS011;7700;48.654;9.070;2023-09-19T02:03:07;1.30;;;0.95;;
15198;SDS011;7700;48.654;9.070;2023-09-19T02:05:34;1.92;;;1.17;;
15198;SDS011;7700;48.654;9.070;2023-09-19T02:08:00;0.90;;;0.85;;
15198;SDS011;7700;48.654;9.070;2023-09-19T02:10:26;1.02;;;0.80;;
15198;SDS011;7700;48.654;9.070;2023-09-19T02:12:51;1.48;;;1.00;;
15198;SDS011;7700;48.654;9.070;2023-09-19T02:15:18;1.77;;;0.90;;
15198;SDS011;7700;48.654;9.070;2023-09-19T02:17:44;1.40;;;0.80;;
15198;SDS011;7700;48.654;9.070;2023-09-19T02:20:11;1.65;;;1.33;;
15198;SDS011;7700;48.654;9.070;2023-09-19T02:22:40;3.63;;;1.10;;
15198;SDS011;7700;48.654;9.070;2023-09-19T02:25:06;1.42;;;0.80;;
15198;SDS011;7700;48.654;9.070;2023-09-19T02:27:32;1.33;;;1.00;;
15198;SDS011;7700;48.654;9.070;2023-09-19T02:29:58;1.25;;;1.00;;
15198;SDS011;7700;48.654;9.070;2023-09-19T02:32:27;1.10;;;1.00;;
15198;SDS011;7700;48.654;9.070;2023-09-19T02:34:55;3.35;;;0.90;;
15198;SDS011;7700;48.654;9.070;2023-09-19T02:37:22;1.40;;;0.85;;
15198;SDS011;7700;48.654;9.070;2023-09-19T02:39:48;1.20;;;0.90;;
15198;SDS011;7700;48.654;9.070;2023-09-19T02:42:14;1.08;;;0.85;;
15198;SDS011;7700;48.654;9.070;2023-09-19T02:44:40;2.75;;;1.10;;
15198;SDS011;7700;48.654;9.070;2023-09-19T02:47:06;3.65;;;1.10;;
15198;SDS011;7700;48.654;9.070;2023-09-19T02:49:32;1.65;;;0.93;;
15198;SDS011;7700;48.654;9.070;2023-09-19T02:51:59;1.55;;;0.90;;
15198;SDS011;7700;48.654;9.070;2023-09-19T02:54:25;1.77;;;1.10;;
15198;SDS011;7700;48.654;9.070;2023-09-19T02:56:51;0.93;;;0.82;;
15198;SDS011;7700;48.654;9.070;2023-09-19T02:59:18;1.75;;;0.80;;
15198;SDS011;7700;48.654;9.070;2023-09-19T03:01:44;1.40;;;0.98;;
15198;SDS011;7700;48.654;9.070;2023-09-19T03:04:13;1.85;;;1.00;;
15198;SDS011;7700;48.654;9.070;2023-09-19T03:06:39;3.58;;;1.02;;
15198;SDS011;7700;48.654;9.070;2023-09-19T03:09:05;1.77;;;1.25;;
15198;SDS011;7700;48.654;9.070;2023-09-19T03:11:38;1.27;;;1.10;;
15198;SDS011;7700;48.654;9.070;2023-09-19T03:14:05;0.82;;;0.80;;
15198;SDS011;7700;48.654;9.070;2023-09-19T03:16:31;2.03;;;1.02;;
15198;SDS011;7700;48.654;9.070;2023-09-19T03:18:58;1.80;;;1.00;;
15198;SDS011;7700;48.654;9.070;2023-09-19T03:21:24;1.83;;;1.33;;
15198;SDS011;7700;48.654;9.070;2023-09-19T03:23:50;1.00;;;0.90;;
15198;SDS011;7700;48.654;9.070;2023-09-19T03:26:16;1.10;;;0.98;;
15198;SDS011;7700;48.654;9.070;2023-09-19T03:28:43;0.90;;;0.90;;
15198;SDS011;7700;48.654;9.070;2023-09-19T03:31:09;1.80;;;1.17;;
15198;SDS011;7700;48.654;9.070;2023-09-19T03:33:36;1.58;;;0.93;;
15198;SDS011;7700;48.654;9.070;2023-09-19T03:36:02;1.95;;;0.90;;
15198;SDS011;7700;48.654;9.070;2023-09-19T03:38:29;2.35;;;1.00;;
15198;SDS011;7700;48.654;9.070;2023-09-19T03:40:56;1.70;;;0.95;;
15198;SDS011;7700;48.654;9.070;2023-09-19T03:43:22;2.05;;;1.13;;
15198;SDS011;7700;48.654;9.070;2023-09-19T03:45:48;1.90;;;1.23;;
15198;SDS011;7700;48.654;9.070;2023-09-19T03:48:15;2.70;;;1.20;;
15198;SDS011;7700;48.654;9.070;2023-09-19T03:50:42;1.00;;;0.80;;
15198;SDS011;7700;48.654;9.070;2023-09-19T03:53:09;1.83;;;1.20;;
15198;SDS011;7700;48.654;9.070;2023-09-19T03:55:35;2.38;;;1.10;;
15198;SDS011;7700;48.654;9.070;2023-09-19T03:58:01;1.55;;;1.00;;
15198;SDS011;7700;48.654;9.070;2023-09-19T04:00:27;1.40;;;1.30;;
15198;SDS011;7700;48.654;9.070;2023-09-19T04:02:54;4.53;;;4.20;;
15198;SDS011;7700;48.654;9.070;2023-09-19T04:05:22;1.50;;;1.30;;
15198;SDS011;7700;48.654;9.070;2023-09-19T04:07:48;30.15;;;15.10;;
15198;SDS011;7700;48.654;9.070;2023-09-19T04:10:15;1.30;;;1.00;;
15198;SDS011;7700;48.654;9.070;2023-09-19T04:12:40;1.13;;;1.02;;
15198;SDS011;7700;48.654;9.070;2023-09-19T04:15:07;2.35;;;1.10;;
15198;SDS011;7700;48.654;9.070;2023-09-19T04:17:33;2.60;;;1.30;;
15198;SDS011;7700;48.654;9.070;2023-09-19T04:19:59;1.85;;;1.15;;
15198;SDS011;7700;48.654;9.070;2023-09-19T04:22:25;1.30;;;1.15;;
15198;SDS011;7700;48.654;9.070;2023-09-19T04:24:51;1.80;;;0.90;;
15198;SDS011;7700;48.654;9.070;2023-09-19T04:27:17;1.77;;;0.95;;
15198;SDS011;7700;48.654;9.070;2023-09-19T04:29:43;1.40;;;1.02;;
15198;SDS011;7700;48.654;9.070;2023-09-19T04:32:10;1.50;;;0.70;;
15198;SDS011;7700;48.654;9.070;2023-09-19T04:34:38;2.30;;;1.27;;
15198;SDS011;7700;48.654;9.070;2023-09-19T04:37:04;2.67;;;0.90;;
15198;SDS011;7700;48.654;9.070;2023-09-19T04:39:30;1.73;;;1.08;;
15198;SDS011;7700;48.654;9.070;2023-09-19T04:41:55;1.10;;;1.00;;
15198;SDS011;7700;48.654;9.070;2023-09-19T04:44:22;2.55;;;1.00;;
15198;SDS011;7700;48.654;9.070;2023-09-19T04:46:48;0.85;;;0.82;;
15198;SDS011;7700;48.654;9.070;2023-09-19T04:49:15;2.60;;;1.02;;
15198;SDS011;7700;48.654;9.070;2023-09-19T04:51:42;1.10;;;1.00;;
15198;SDS011;7700;48.654;9.070;2023-09-19T04:54:08;2.00;;;1.40;;
15198;SDS011;7700;48.654;9.070;2023-09-19T04:56:34;2.30;;;1.17;;
15198;SDS011;7700;48.654;9.070;2023-09-19T04:59:00;1.77;;;1.08;;
15198;SDS011;7700;48.654;9.070;2023-09-19T05:01:26;1.83;;;1.20;;
15198;SDS011;7700;48.654;9.070;2023-09-19T05:03:52;2.55;;;1.10;;
15198;SDS011;7700;48.654;9.070;2023-09-19T05:06:21;1.60;;;0.95;;
15198;SDS011;7700;48.654;9.070;2023-09-19T05:08:47;1.75;;;0.90;;
15198;SDS011;7700;48.654;9.070;2023-09-19T05:11:16;1.23;;;1.13;;
15198;SDS011;7700;48.654;9.070;2023-09-19T05:13:42;2.05;;;1.40;;
15198;SDS011;7700;48.654;9.070;2023-09-19T05:16:08;1.58;;;1.10;;
15198;SDS011;7700;48.654;9.070;2023-09-19T05:18:35;1.20;;;0.80;;
15198;SDS011;7700;48.654;9.070;2023-09-19T05:21:04;2.65;;;1.67;;
15198;SDS011;7700;48.654;9.070;2023-09-19T05:23:30;1.25;;;1.02;;
15198;SDS011;7700;48.654;9.070;2023-09-19T05:25:56;1.58;;;1.08;;
15198;SDS011;7700;48.654;9.070;2023-09-19T05:28:25;1.90;;;1.33;;
15198;SDS011;7700;48.654;9.070;2023-09-19T05:30:51;2.55;;;1.20;;
15198;SDS011;7700;48.654;9.070;2023-09-19T05:33:18;1.38;;;1.20;;
15198;SDS011;7700;48.654;9.070;2023-09-19T05:35:44;2.95;;;1.20;;
15198;SDS011;7700;48.654;9.070;2023-09-19T05:38:12;1.60;;;1.08;;
15198;SDS011;7700;48.654;9.070;2023-09-19T05:40:39;1.75;;;1.10;;
15198;SDS011;7700;48.654;9.070;2023-09-19T05:43:07;4.78;;;1.48;;
15198;SDS011;7700;48.654;9.070;2023-09-19T05:45:33;1.48;;;1.30;;
15198;SDS011;7700;48.654;9.070;2023-09-19T05:48:09;1.10;;;1.00;;
15198;SDS011;7700;48.654;9.070;2023-09-19T05:50:36;1.90;;;1.15;;
15198;SDS011;7700;48.654;9.070;2023-09-19T05:53:02;1.80;;;1.00;;
15198;SDS011;7700;48.654;9.070;2023-09-19T05:55:29;1.58;;;1.10;;
15198;SDS011;7700;48.654;9.070;2023-09-19T05:57:55;1.65;;;1.10;;
15198;SDS011;7700;48.654;9.070;2023-09-19T06:00:22;2.78;;;1.20;;
15198;SDS011;7700;48.654;9.070;2023-09-19T06:02:52;1.52;;;1.10;;
15198;SDS011;7700;48.654;9.070;2023-09-19T06:05:18;1.17;;;1.05;;
15198;SDS011;7700;48.654;9.070;2023-09-19T06:07:44;1.58;;;0.88;;
15198;SDS011;7700;48.654;9.070;2023-09-19T06:10:10;1.45;;;0.93;;
15198;SDS011;7700;48.654;9.070;2023-09-19T06:12:39;28.80;;;13.27;;
15198;SDS011;7700;48.654;9.070;2023-09-19T06:15:05;1.08;;;0.90;;
15198;SDS011;7700;48.654;9.070;2023-09-19T06:17:33;1.10;;;1.00;;
15198;SDS011;7700;48.654;9.070;2023-09-19T06:20:03;0.80;;;0.80;;
15198;SDS011;7700;48.654;9.070;2023-09-19T06:22:29;0.80;;;0.80;;
15198;SDS011;7700;48.654;9.070;2023-09-19T06:24:55;2.30;;;1.13;;
15198;SDS011;7700;48.654;9.070;2023-09-19T06:27:21;1.33;;;0.80;;
15198;SDS011;7700;48.654;9.070;2023-09-19T06:29:47;2.28;;;1.30;;
15198;SDS011;7700;48.654;9.070;2023-09-19T06:32:13;1.25;;;1.10;;
15198;SDS011;7700;48.654;9.070;2023-09-19T06:34:39;2.20;;;0.80;;
15198;SDS011;7700;48.654;9.070;2023-09-19T06:37:08;1.58;;;0.88;;
15198;SDS011;7700;48.654;9.070;2023-09-19T06:39:34;1.55;;;0.80;;
15198;SDS011;7700;48.654;9.070;2023-09-19T06:42:00;1.13;;;0.90;;
15198;SDS011;7700;48.654;9.070;2023-09-19T06:44:27;1.60;;;1.00;;
15198;SDS011;7700;48.654;9.070;2023-09-19T06:46:54;1.25;;;0.80;;
15198;SDS011;7700;48.654;9.070;2023-09-19T06:49:20;0.85;;;0.75;;
15198;SDS011;7700;48.654;9.070;2023-09-19T06:51:46;1.25;;;0.80;;
15198;SDS011;7700;48.654;9.070;2023-09-19T06:54:12;0.57;;;0.55;;
15198;SDS011;7700;48.654;9.070;2023-09-19T06:56:38;1.10;;;0.80;;
15198;SDS011;7700;48.654;9.070;2023-09-19T06:59:04;0.60;;;0.60;;
15198;SDS011;7700;48.654;9.070;2023-09-19T07:01:32;1.00;;;0.65;;
15198;SDS011;7700;48.654;9.070;2023-09-19T07:03:58;0.85;;;0.80;;
15198;SDS011;7700;48.654;9.070;2023-09-19T07:06:24;1.23;;;0.85;;
15198;SDS011;7700;48.654;9.070;2023-09-19T07:08:50;1.63;;;0.70;;
15198;SDS011;7700;48.654;9.070;2023-09-19T07:11:16;1.52;;;0.55;;
15198;SDS011;7700;48.654;9.070;2023-09-19T07:13:42;1.38;;;0.80;;
15198;SDS011;7700;48.654;9.070;2023-09-19T07:16:08;0.98;;;0.70;;
15198;SDS011;7700;48.654;9.070;2023-09-19T07:18:38;1.10;;;0.90;;
15198;SDS011;7700;48.654;9.070;2023-09-19T07:21:04;1.40;;;0.80;;
15198;SDS011;7700;48.654;9.070;2023-09-19T07:23:30;1.30;;;0.90;;
15198;SDS011;7700;48.654;9.070;2023-09-19T07:26:00;0.85;;;0.77;;
15198;SDS011;7700;48.654;9.070;2023-09-19T07:28:26;1.30;;;0.77;;
15198;SDS011;7700;48.654;9.070;2023-09-19T07:30:53;1.48;;;1.05;;
15198;SDS011;7700;48.654;9.070;2023-09-19T07:33:19;1.50;;;0.80;;
15198;SDS011;7700;48.654;9.070;2023-09-19T07:35:46;1.55;;;0.70;;
15198;SDS011;7700;48.654;9.070;2023-09-19T07:38:12;1.17;;;1.08;;
15198;SDS011;7700;48.654;9.070;2023-09-19T07:40:38;1.90;;;0.98;;
15198;SDS011;7700;48.654;9.070;2023-09-19T07:43:04;0.90;;;0.90;;
15198;SDS011;7700;48.654;9.070;2023-09-19T07:45:31;1.80;;;0.80;;
15198;SDS011;7700;48.654;9.070;2023-09-19T07:47:57;1.95;;;1.05;;
15198;SDS011;7700;48.654;9.070;2023-09-19T07:50:25;1.10;;;0.80;;
15198;SDS011;7700;48.654;9.070;2023-09-19T07:52:51;2.05;;;1.00;;
15198;SDS011;7700;48.654;9.070;2023-09-19T07:55:18;2.05;;;0.88;;
15198;SDS011;7700;48.654;9.070;2023-09-19T07:57:45;1.65;;;0.93;;
15198;SDS011;7700;48.654;9.070;2023-09-19T08:00:12;3.22;;;1.40;;
15198;SDS011;7700;48.654;9.070;2023-09-19T08:02:38;2.00;;;1.13;;
15198;SDS011;7700;48.654;9.070;2023-09-19T08:05:05;1.20;;;1.00;;
15198;SDS011;7700;48.654;9.070;2023-09-19T08:07:32;1.48;;;0.88;;
15198;SDS011;7700;48.654;9.070;2023-09-19T08:09:58;1.40;;;1.10;;
15198;SDS011;7700;48.654;9.070;2023-09-19T08:12:24;1.52;;;0.90;;
15198;SDS011;7700;48.654;9.070;2023-09-19T08:14:50;3.40;;;1.10;;
15198;SDS011;7700;48.654;9.070;2023-09-19T08:17:16;1.77;;;1.08;;
15198;SDS011;7700;48.654;9.070;2023-09-19T08:19:42;1.35;;;0.80;;
15198;SDS011;7700;48.654;9.070;2023-09-19T08:22:10;1.67;;;0.90;;
15198;SDS011;7700;48.654;9.070;2023-09-19T08:24:36;2.83;;;2.67;;
15198;SDS011;7700;48.654;9.070;2023-09-19T08:27:03;1.45;;;1.00;;
15198;SDS011;7700;48.654;9.070;2023-09-19T08:29:30;1.08;;;0.90;;
15198;SDS011;7700;48.654;9.070;2023-09-19T08:31:57;1.55;;;0.90;;
15198;SDS011;7700;48.654;9.070;2023-09-19T08:34:23;2.33;;;1.00;;
15198;SDS011;7700;48.654;9.070;2023-09-19T08:36:53;34.72;;;12.00;;
15198;SDS011;7700;48.654;9.070;2023-09-19T08:39:23;3.33;;;3.08;;
15198;SDS011;7700;48.654;9.070;2023-09-19T08:41:49;7.07;;;6.53;;
15198;SDS011;7700;48.654;9.070;2023-09-19T08:44:15;5.88;;;5.57;;
15198;SDS011;7700;48.654;9.070;2023-09-19T08:46:41;7.35;;;6.78;;
15198;SDS011;7700;48.654;9.070;2023-09-19T08:49:08;5.80;;;5.57;;
15198;SDS011;7700;48.654;9.070;2023-09-19T08:51:43;63.13;;;29.25;;
15198;SDS011;7700;48.654;9.070;2023-09-19T08:54:10;5.10;;;4.75;;
15198;SDS011;7700;48.654;9.070;2023-09-19T08:56:38;3.58;;;3.38;;
15198;SDS011;7700;48.654;9.070;2023-09-19T08:59:05;6.90;;;6.53;;
15198;SDS011;7700;48.654;9.070;2023-09-19T09:01:34;77.78;;;18.55;;
15198;SDS011;7700;48.654;9.070;2023-09-19T09:04:02;2.63;;;1.00;;
15198;SDS011;7700;48.654;9.070;2023-09-19T09:06:28;14.18;;;13.43;;
15198;SDS011;7700;48.654;9.070;2023-09-19T09:08:55;8.38;;;7.88;;
15198;SDS011;7700;48.654;9.070;2023-09-19T09:11:21;52.25;;;23.52;;
15198;SDS011;7700;48.654;9.070;2023-09-19T09:13:49;41.33;;;13.23;;
15198;SDS011;7700;48.654;9.070;2023-09-19T09:16:15;25.23;;;22.73;;
15198;SDS011;7700;48.654;9.070;2023-09-19T09:18:45;42.10;;;37.22;;
15198;SDS011;7700;48.654;9.070;2023-09-19T09:21:11;30.08;;;28.23;;
15198;SDS011;7700;48.654;9.070;2023-09-19T09:23:40;31.15;;;26.85;;
15198;SDS011;7700;48.654;9.070;2023-09-19T09:26:06;21.77;;;20.02;;
15198;SDS011;7700;48.654;9.070;2023-09-19T09:28:34;133.95;;;73.97;;
15198;SDS011;7700;48.654;9.070;2023-09-19T09:31:02;4.60;;;4.25;;
15198;SDS011;7700;48.654;9.070;2023-09-19T09:33:32;67.13;;;51.58;;
15198;SDS011;7700;48.654;9.070;2023-09-19T09:35:59;60.65;;;56.78;;
15198;SDS011;7700;48.654;9.070;2023-09-19T09:38:28;93.45;;;88.32;;
15198;SDS011;7700;48.654;9.070;2023-09-19T09:40:57;84.30;;;80.25;;
15198;SDS011;7700;48.654;9.070;2023-09-19T09:43:26;180.77;;;170.02;;
15198;SDS011;7700;48.654;9.070;2023-09-19T09:46:06;27.52;;;25.27;;
15198;SDS011;7700;48.654;9.070;2023-09-19T09:51:34;251.57;;;239.82;;
15198;SDS011;7700;48.654;9.070;2023-09-19T09:54:12;243.23;;;230.15;;
15198;SDS011;7700;48.654;9.070;2023-09-19T09:56:55;69.85;;;39.85;;
15198;SDS011;7700;48.654;9.070;2023-09-19T10:03:33;321.42;;;302.77;;
15198;SDS011;7700;48.654;9.070;2023-09-19T10:06:03;161.43;;;152.57;;
15198;SDS011;7700;48.654;9.070;2023-09-19T10:09:06;392.83;;;369.02;;
15198;SDS011;7700;48.654;9.070;2023-09-19T10:11:44;264.40;;;251.05;;
15198;SDS011;7700;48.654;9.070;2023-09-19T10:14:11;187.70;;;178.50;;
15198;SDS011;7700;48.654;9.070;2023-09-19T10:16:40;273.50;;;259.48;;
15198;SDS011;7700;48.654;9.070;2023-09-19T10:19:07;174.80;;;167.02;;
15198;SDS011;7700;48.654;9.070;2023-09-19T10:21:36;286.02;;;271.67;;
15198;SDS011;7700;48.654;9.070;2023-09-19T10:24:03;338.73;;;321.10;;
15198;SDS011;7700;48.654;9.070;2023-09-19T10:26:32;313.25;;;294.02;;
15198;SDS011;7700;48.654;9.070;2023-09-19T10:29:01;168.93;;;160.20;;
15198;SDS011;7700;48.654;9.070;2023-09-19T10:31:28;339.15;;;319.75;;
15198;SDS011;7700;48.654;9.070;2023-09-19T10:33:55;180.70;;;170.52;;
15198;SDS011;7700;48.654;9.070;2023-09-19T10:36:23;189.07;;;179.18;;
15198;SDS011;7700;48.654;9.070;2023-09-19T10:38:52;178.77;;;170.25;;
15198;SDS011;7700;48.654;9.070;2023-09-19T10:41:21;252.30;;;238.73;;
15198;SDS011;7700;48.654;9.070;2023-09-19T10:43:48;133.05;;;125.90;;
15198;SDS011;7700;48.654;9.070;2023-09-19T10:46:14;96.85;;;91.32;;
15198;SDS011;7700;48.654;9.070;2023-09-19T10:48:40;180.50;;;170.10;;
15198;SDS011;7700;48.654;9.070;2023-09-19T10:53:58;153.80;;;145.27;;
15198;SDS011;7700;48.654;9.070;2023-09-19T10:56:35;95.45;;;90.57;;
15198;SDS011;7700;48.654;9.070;2023-09-19T10:59:09;71.78;;;64.43;;
15198;SDS011;7700;48.654;9.070;2023-09-19T11:07:01;205.55;;;194.77;;
15198;SDS011;7700;48.654;9.070;2023-09-19T11:09:52;147.75;;;139.20;;
15198;SDS011;7700;48.654;9.070;2023-09-19T11:15:06;223.52;;;211.60;;
15198;SDS011;7700;48.654;9.070;2023-09-19T11:30:30;89.53;;;84.68;;
15198;SDS011;7700;48.654;9.070;2023-09-19T11:36:01;209.25;;;199.10;;
15198;SDS011;7700;48.654;9.070;2023-09-19T11:46:32;128.48;;;121.38;;
15198;SDS011;7700;48.654;9.070;2023-09-19T11:49:08;230.20;;;218.25;;
15198;SDS011;7700;48.654;9.070;2023-09-19T11:51:42;136.40;;;128.85;;
15198;SDS011;7700;48.654;9.070;2023-09-19T11:54:13;319.65;;;304.05;;
15198;SDS011;7700;48.654;9.070;2023-09-19T11:56:50;118.57;;;111.60;;
15198;SDS011;7700;48.654;9.070;2023-09-19T11:59:22;107.55;;;101.30;;
15198;SDS011;7700;48.654;9.070;2023-09-19T12:01:52;132.23;;;124.82;;
15198;SDS011;7700;48.654;9.070;2023-09-19T12:04:34;106.97;;;99.47;;
15198;SDS011;7700;48.654;9.070;2023-09-19T12:07:04;118.57;;;112.22;;
15198;SDS011;7700;48.654;9.070;2023-09-19T12:09:31;233.25;;;221.20;;
15198;SDS011;7700;48.654;9.070;2023-09-19T12:11:57;106.25;;;100.68;;
15198;SDS011;7700;48.654;9.070;2023-09-19T12:14:23;294.45;;;277.70;;
15198;SDS011;7700;48.654;9.070;2023-09-19T12:16:57;136.90;;;129.52;;
15198;SDS011;7700;48.654;9.070;2023-09-19T12:19:23;179.65;;;169.02;;
15198;SDS011;7700;48.654;9.070;2023-09-19T12:21:59;307.00;;;288.83;;
15198;SDS011;7700;48.654;9.070;2023-09-19T12:24:34;228.60;;;214.85;;
15198;SDS011;7700;48.654;9.070;2023-09-19T12:27:04;311.00;;;290.75;;
15198;SDS011;7700;48.654;9.070;2023-09-19T12:29:30;178.15;;;167.65;;
15198;SDS011;7700;48.654;9.070;2023-09-19T12:31:57;340.88;;;317.48;;
15198;SDS011;7700;48.654;9.070;2023-09-19T12:34:27;274.80;;;256.95;;
15198;SDS011;7700;48.654;9.070;2023-09-19T12:37:03;340.85;;;319.23;;
15198;SDS011;7700;48.654;9.070;2023-09-19T12:39:36;313.73;;;293.00;;
15198;SDS011;7700;48.654;9.070;2023-09-19T12:42:02;283.98;;;266.73;;
15198;SDS011;7700;48.654;9.070;2023-09-19T12:44:29;270.27;;;251.88;;
15198;SDS011;7700;48.654;9.070;2023-09-19T12:46:55;409.45;;;381.98;;
15198;SDS011;7700;48.654;9.070;2023-09-19T12:49:22;259.15;;;242.63;;
15198;SDS011;7700;48.654;9.070;2023-09-19T12:51:48;418.58;;;389.65;;
15198;SDS011;7700;48.654;9.070;2023-09-19T12:54:15;245.38;;;230.02;;
15198;SDS011;7700;48.654;9.070;2023-09-19T12:56:42;149.45;;;141.00;;
15198;SDS011;7700;48.654;9.070;2023-09-19T12:59:14;164.65;;;153.95;;
15198;SDS011;7700;48.654;9.070;2023-09-19T13:01:41;355.55;;;331.42;;
15198;SDS011;7700;48.654;9.070;2023-09-19T13:06:37;296.70;;;278.42;;
15198;SDS011;7700;48.654;9.070;2023-09-19T13:09:08;422.65;;;397.27;;
15198;SDS011;7700;48.654;9.070;2023-09-19T13:11:38;254.07;;;239.02;;
15198;SDS011;7700;48.654;9.070;2023-09-19T13:16:59;355.95;;;333.65;;
15198;SDS011;7700;48.654;9.070;2023-09-19T13:19:44;304.65;;;285.67;;
15198;SDS011;7700;48.654;9.070;2023-09-19T13:22:43;558.00;;;524.38;;
15198;SDS011;7700;48.654;9.070;2023-09-19T13:25:10;261.08;;;242.63;;
15198;SDS011;7700;48.654;9.070;2023-09-19T13:27:40;246.32;;;230.57;;
15198;SDS011;7700;48.654;9.070;2023-09-19T13:30:07;394.85;;;371.65;;
15198;SDS011;7700;48.654;9.070;2023-09-19T13:32:33;550.85;;;516.03;;
15198;SDS011;7700;48.654;9.070;2023-09-19T13:35:01;437.80;;;408.23;;
15198;SDS011;7700;48.654;9.070;2023-09-19T13:37:27;407.55;;;382.77;;
15198;SDS011;7700;48.654;9.070;2023-09-19T13:39:53;362.42;;;341.08;;
15198;SDS011;7700;48.654;9.070;2023-09-19T13:42:19;444.80;;;418.33;;
15198;SDS011;7700;48.654;9.070;2023-09-19T13:44:46;358.92;;;337.83;;
15198;SDS011;7700;48.654;9.070;2023-09-19T13:47:13;413.20;;;387.55;;
15198;SDS011;7700;48.654;9.070;2023-09-19T13:49:40;323.60;;;306.05;;
15198;SDS011;7700;48.654;9.070;2023-09-19T13:52:08;281.27;;;264.38;;
15198;SDS011;7700;48.654;9.070;2023-09-19T13:54:34;303.67;;;284.77;;
15198;SDS011;7700;48.654;9.070;2023-09-19T13:57:00;379.25;;;356.10;;
15198;SDS011;7700;48.654;9.070;2023-09-19T13:59:26;376.42;;;351.63;;
15198;SDS011;7700;48.654;9.070;2023-09-19T14:01:53;409.02;;;382.42;;
15198;SDS011;7700;48.654;9.070;2023-09-19T14:04:20;306.17;;;286.17;;
15198;SDS011;7700;48.654;9.070;2023-09-19T14:06:48;285.20;;;267.63;;
15198;SDS011;7700;48.654;9.070;2023-09-19T14:09:15;459.85;;;433.80;;
15198;SDS011;7700;48.654;9.070;2023-09-19T14:11:44;437.45;;;409.65;;
15198;SDS011;7700;48.654;9.070;2023-09-19T14:14:12;591.53;;;552.35;;
15198;SDS011;7700;48.654;9.070;2023-09-19T14:16:39;439.25;;;410.58;;
15198;SDS011;7700;48.654;9.070;2023-09-19T14:19:06;430.23;;;402.27;;
15198;SDS011;7700;48.654;9.070;2023-09-19T14:21:33;579.40;;;542.30;;
15198;SDS011;7700;48.654;9.070;2023-09-19T14:24:01;517.80;;;484.67;;
15198;SDS011;7700;48.654;9.070;2023-09-19T14:26:27;546.38;;;513.28;;
15198;SDS011;7700;48.654;9.070;2023-09-19T14:28:52;560.17;;;524.25;;
15198;SDS011;7700;48.654;9.070;2023-09-19T14:31:18;484.02;;;453.70;;
15198;SDS011;7700;48.654;9.070;2023-09-19T14:33:44;573.13;;;537.05;;
15198;SDS011;7700;48.654;9.070;2023-09-19T14:36:11;468.88;;;440.70;;
15198;SDS011;7700;48.654;9.070;2023-09-19T14:38:38;456.58;;;430.55;;
15198;SDS011;7700;48.654;9.070;2023-09-19T14:41:05;561.65;;;525.72;;
15198;SDS011;7700;48.654;9.070;2023-09-19T14:43:31;518.05;;;485.90;;
15198;SDS011;7700;48.654;9.070;2023-09-19T14:46:06;518.13;;;485.27;;
15198;SDS011;7700;48.654;9.070;2023-09-19T14:48:32;570.92;;;535.50;;
15198;SDS011;7700;48.654;9.070;2023-09-19T14:51:05;498.73;;;467.42;;
15198;SDS011;7700;48.654;9.070;2023-09-19T14:53:31;577.42;;;542.20;;
15198;SDS011;7700;48.654;9.070;2023-09-19T14:56:01;648.15;;;607.80;;
15198;SDS011;7700;48.654;9.070;2023-09-19T14:58:30;531.45;;;501.58;;
15198;SDS011;7700;48.654;9.070;2023-09-19T15:01:03;564.30;;;530.00;;
15198;SDS011;7700;48.654;9.070;2023-09-19T15:03:31;493.00;;;464.30;;
15198;SDS011;7700;48.654;9.070;2023-09-19T15:06:00;515.90;;;484.70;;
15198;SDS011;7700;48.654;9.070;2023-09-19T15:08:27;570.88;;;536.00;;
15198;SDS011;7700;48.654;9.070;2023-09-19T15:10:53;540.00;;;506.55;;
15198;SDS011;7700;48.654;9.070;2023-09-19T15:13:19;577.15;;;542.35;;
15198;SDS011;7700;48.654;9.070;2023-09-19T15:15:45;527.15;;;495.90;;
15198;SDS011;7700;48.654;9.070;2023-09-19T15:18:13;476.23;;;448.10;;
15198;SDS011;7700;48.654;9.070;2023-09-19T15:20:43;513.15;;;481.98;;
15198;SDS011;7700;48.654;9.070;2023-09-19T15:23:09;494.48;;;464.40;;
15198;SDS011;7700;48.654;9.070;2023-09-19T15:25:35;463.92;;;434.25;;
15198;SDS011;7700;48.654;9.070;2023-09-19T15:28:01;557.10;;;524.78;;
15198;SDS011;7700;48.654;9.070;2023-09-19T15:30:36;437.55;;;412.75;;
15198;SDS011;7700;48.654;9.070;2023-09-19T15:33:02;484.63;;;456.77;;
15198;SDS011;7700;48.654;9.070;2023-09-19T15:35:28;520.63;;;490.83;;
15198;SDS011;7700;48.654;9.070;2023-09-19T15:37:54;492.50;;;463.88;;
15198;SDS011;7700;48.654;9.070;2023-09-19T15:40:21;434.20;;;408.65;;
15198;SDS011;7700;48.654;9.070;2023-09-19T15:42:50;456.77;;;429.98;;
15198;SDS011;7700;48.654;9.070;2023-09-19T15:45:16;472.08;;;445.52;;